Time;durP1;ratioP1;P1;durP2;ratioP2;P2;SDS_P1;SDS_P2;PMS_P1;PMS_P2;Temp;Humidity;BMP_temperature;BMP_pressure;BME280_temperature;BME280_humidity;BME280_pressure;Samples;Min_cycle;Max_cycle;Signal;HPM_P1;HPM_P2
2022/04/11 00:02:11;;;;;;;0.00;0.00;;;;;;;7.71;72.72;98219.38;6247524;22;20399;-80
2022/04/11 00:04:52;;;;;;;0.00;0.00;;;;;;;7.65;72.72;98231.91;6248056;22;20011;-79
2022/04/11 00:07:21;;;;;;;0.00;0.00;;;;;;;7.65;72.79;98234.56;6251677;22;20038;-79
2022/04/11 00:09:48;;;;;;;0.00;0.00;;;;;;;7.66;73.29;98244.16;6274896;22;20061;-79
2022/04/11 00:12:14;;;;;;;0.00;0.00;;;;;;;7.64;73.15;98255.06;6247724;22;20006;-79
2022/04/11 00:15:17;;;;;;;0.00;0.00;;;;;;;7.66;73.68;98255.56;6248415;22;20000;-80
2022/04/11 00:17:42;;;;;;;0.00;0.00;;;;;;;7.65;74.12;98258.53;6217480;23;20054;-78
2022/04/11 00:20:08;;;;;;;0.00;0.00;;;;;;;7.62;74.12;98253.75;6217152;23;20032;-78
2022/04/11 00:22:35;;;;;;;0.00;0.00;;;;;;;7.56;74.78;98250.31;6217026;23;20004;-77
2022/04/11 00:25:01;;;;;;;0.00;0.00;;;;;;;7.56;74.89;98265.50;6217146;23;20014;-77
2022/04/11 00:27:26;;;;;;;0.00;0.00;;;;;;;7.51;75.33;98251.16;6217521;23;20491;-78
2022/04/11 00:29:52;;;;;;;0.00;0.00;;;;;;;7.48;75.59;98262.34;6242576;23;20071;-77
2022/04/11 00:32:17;;;;;;;0.00;0.00;;;;;;;7.45;76.15;98257.56;6243951;23;20035;-77
2022/04/11 00:34:42;;;;;;;0.00;0.00;;;;;;;7.44;75.85;98263.19;6243662;23;20338;-76
2022/04/11 00:37:08;;;;;;;0.00;0.00;;;;;;;7.49;76.49;98263.13;6243700;23;20434;-77
2022/04/11 00:39:33;;;;;;;0.00;0.00;;;;;;;7.47;76.05;98274.06;6217616;23;20012;-78
2022/04/11 00:42:07;;;;;;;0.00;0.00;;;;;;;7.42;76.68;98273.28;6244318;23;20061;-78
2022/04/11 00:44:32;;;;;;;0.20;0.20;;;;;;;7.40;76.20;98275.41;6243997;23;20004;-75
2022/04/11 00:46:58;;;;;;;0.00;0.00;;;;;;;7.39;75.90;98271.97;6242197;23;20008;-76
2022/04/11 00:49:23;;;;;;;0.00;0.00;;;;;;;7.35;76.58;98261.09;6243920;23;20062;-77
2022/04/11 00:51:48;;;;;;;0.00;0.00;;;;;;;7.31;76.69;98276.00;6243939;23;20005;-75
2022/04/11 00:54:14;;;;;;;2.17;1.55;;;;;;;7.30;77.00;98278.91;6243862;23;20070;-75
2022/04/11 00:56:40;;;;;;;0.00;0.00;;;;;;;7.35;76.95;98281.56;6244086;23;20393;-74
2022/04/11 00:59:05;;;;;;;0.00;0.00;;;;;;;7.29;77.32;98274.69;6243214;23;20007;-74
2022/04/11 01:01:31;;;;;;;0.10;0.10;;;;;;;7.31;76.95;98283.19;6243595;23;20004;-74
2022/04/11 01:03:57;;;;;;;0.00;0.00;;;;;;;7.31;77.57;98289.31;6243446;23;20004;-74
2022/04/11 01:06:22;;;;;;;0.05;0.05;;;;;;;7.27;77.67;98282.91;6243399;23;20010;-75
2022/04/11 01:08:48;;;;;;;0.00;0.00;;;;;;;7.32;77.98;98287.44;6243899;23;20075;-75
2022/04/11 01:11:13;;;;;;;0.00;0.00;;;;;;;7.36;77.55;98304.41;6243337;23;20008;-75
2022/04/11 01:13:42;;;;;;;0.00;0.00;;;;;;;7.33;78.43;98303.09;6243945;23;20008;-76
2022/04/11 01:16:07;;;;;;;0.00;0.00;;;;;;;7.32;78.37;98309.53;6253487;22;20016;-78
2022/04/11 01:18:37;;;;;;;0.00;0.00;;;;;;;7.31;78.56;98312.44;6247261;22;20060;-77
2022/04/11 01:21:03;;;;;;;0.00;0.00;;;;;;;7.29;79.79;98317.25;6273912;22;20000;-77
2022/04/11 01:23:29;;;;;;;0.00;0.00;;;;;;;7.21;79.49;98311.41;6274422;22;20008;-77
2022/04/11 01:25:54;;;;;;;0.00;0.00;;;;;;;7.17;79.97;98310.34;6273937;22;20027;-78
2022/04/11 01:28:21;;;;;;;0.00;0.00;;;;;;;7.21;80.46;98315.94;6247700;22;20010;-79
2022/04/11 01:30:50;;;;;;;0.10;0.10;;;;;;;7.19;80.59;98302.91;6274476;22;20004;-79
2022/04/11 01:33:25;;;;;;;0.00;0.00;;;;;;;7.16;80.64;98313.28;6247176;22;20099;-77
2022/04/11 01:35:50;;;;;;;0.00;0.00;;;;;;;7.13;80.30;98305.84;6274684;22;20008;-78
2022/04/11 01:38:17;;;;;;;0.00;0.00;;;;;;;6.99;81.05;98305.63;6274519;22;20107;-77
2022/04/11 01:40:52;;;;;;;0.00;0.00;;;;;;;7.02;80.89;98324.50;6247266;22;20003;-77
2022/04/11 01:43:17;;;;;;;0.00;0.00;;;;;;;7.02;80.58;98329.03;6247095;22;20041;-77
2022/04/11 01:45:43;;;;;;;0.00;0.00;;;;;;;7.01;80.93;98330.09;6274097;22;20027;-77
2022/04/11 01:48:08;;;;;;;0.00;0.00;;;;;;;6.98;80.96;98331.44;6246881;22;20326;-76
2022/04/11 01:50:34;;;;;;;0.00;0.00;;;;;;;6.97;80.50;98323.69;6274405;22;20082;-78
2022/04/11 01:53:05;;;;;;;0.00;0.00;;;;;;;7.00;81.02;98328.50;6274619;22;20341;-79
2022/04/11 01:55:31;;;;;;;0.00;0.00;;;;;;;7.00;80.80;98341.78;6247208;22;20007;-78
2022/04/11 01:57:56;;;;;;;0.00;0.00;;;;;;;6.96;80.53;98338.09;6246734;22;20326;-77
2022/04/11 02:00:21;;;;;;;0.00;0.00;;;;;;;6.99;81.12;98351.59;6246799;22;20008;-78
2022/04/11 02:02:47;;;;;;;0.00;0.00;;;;;;;7.00;80.78;98352.41;6246695;22;20086;-77
2022/04/11 02:05:12;;;;;;;0.15;0.15;;;;;;;7.00;81.13;98347.09;6246299;22;20026;-76
2022/04/11 02:07:38;;;;;;;0.10;0.10;;;;;;;6.96;80.59;98360.13;6274042;22;20008;-77
2022/04/11 02:10:04;;;;;;;0.00;0.00;;;;;;;6.99;81.27;98369.44;6273457;22;20137;-77
2022/04/11 02:12:29;;;;;;;0.00;0.00;;;;;;;7.00;81.19;98374.47;6274022;22;20004;-77
2022/04/11 02:14:55;;;;;;;0.00;0.00;;;;;;;7.01;80.84;98370.75;6273329;22;20485;-77
2022/04/11 02:17:20;;;;;;;0.00;0.00;;;;;;;7.01;80.84;98377.94;6272317;22;20077;-76
2022/04/11 02:19:47;;;;;;;0.00;0.00;;;;;;;7.00;80.33;98379.00;6273453;22;20020;-77
2022/04/11 02:22:13;;;;;;;0.00;0.00;;;;;;;7.01;80.55;98391.25;6272089;22;20014;-76
2022/04/11 02:24:38;;;;;;;0.00;0.00;;;;;;;7.03;80.38;98389.09;6273851;22;20008;-76
2022/04/11 02:27:04;;;;;;;0.00;0.00;;;;;;;7.05;79.86;98390.44;6273654;22;20145;-76
2022/04/11 02:29:29;;;;;;;0.00;0.00;;;;;;;7.05;80.14;98395.75;6273735;22;20104;-76
2022/04/11 02:31:55;;;;;;;0.68;0.40;;;;;;;7.03;79.68;98391.75;6273341;22;20011;-76
2022/04/11 02:34:20;;;;;;;0.00;0.00;;;;;;;7.08;80.02;98402.41;6246918;22;20027;-78
2022/04/11 02:36:46;;;;;;;0.00;0.00;;;;;;;7.12;80.34;98414.06;6246833;22;20360;-78
2022/04/11 02:39:11;;;;;;;0.00;0.00;;;;;;;7.10;80.20;98408.22;6274143;22;20063;-78
2022/04/11 02:41:36;;;;;;;0.00;0.00;;;;;;;7.07;79.79;98403.47;6273757;22;20031;-77
2022/04/11 02:44:02;;;;;;;0.00;0.00;;;;;;;7.11;79.17;98417.78;6271794;22;20023;-77
2022/04/11 02:46:27;;;;;;;0.00;0.00;;;;;;;7.10;79.30;98415.41;6274049;22;20007;-77
2022/04/11 02:48:53;;;;;;;0.00;0.00;;;;;;;7.13;78.70;98428.97;6246921;22;20003;-77
2022/04/11 02:51:18;;;;;;;0.00;0.00;;;;;;;7.13;79.11;98428.97;6247212;22;20066;-77
2022/04/11 02:53:44;;;;;;;0.00;0.00;;;;;;;7.16;79.26;98432.94;6274200;22;20011;-76
2022/04/11 02:56:10;;;;;;;0.00;0.00;;;;;;;7.17;78.79;98435.34;6273460;22;20007;-76
2022/04/11 02:58:35;;;;;;;0.00;0.00;;;;;;;7.19;79.11;98445.72;6275737;22;20008;-76
2022/04/11 03:01:00;;;;;;;0.00;0.00;;;;;;;7.18;78.73;98447.56;6273916;22;20002;-75
2022/04/11 03:03:26;;;;;;;0.00;0.00;;;;;;;7.15;78.80;98445.47;6275656;22;20004;-75
2022/04/11 03:05:51;;;;;;;0.00;0.00;;;;;;;7.17;79.26;98458.47;6275281;22;20010;-75
2022/04/11 03:08:17;;;;;;;0.00;0.00;;;;;;;7.19;78.99;98464.34;6248353;22;20038;-75
2022/04/11 03:10:42;;;;;;;0.08;0.08;;;;;;;7.27;78.35;98465.66;6275354;22;20084;-74
2022/04/11 03:13:07;;;;;;;0.47;0.47;;;;;;;7.25;78.53;98471.25;6248386;22;20068;-74
2022/04/11 03:15:33;;;;;;;0.00;0.00;;;;;;;7.26;78.58;98469.38;6275168;22;20006;-75
2022/04/11 03:17:58;;;;;;;0.00;0.00;;;;;;;7.30;78.10;98481.06;6275195;22;20014;-75
2022/04/11 03:20:24;;;;;;;0.00;0.00;;;;;;;7.25;76.00;98481.88;6275351;22;20015;-75
2022/04/11 03:22:49;;;;;;;0.00;0.00;;;;;;;7.18;72.80;98492.78;6275529;22;20010;-75
2022/04/11 03:25:15;;;;;;;0.10;0.10;;;;;;;7.21;72.65;98492.25;6275183;22;20000;-75
2022/04/11 03:27:40;;;;;;;0.10;0.10;;;;;;;7.07;71.81;98506.34;6275302;22;20093;-77
2022/04/11 03:30:08;;;;;;;0.00;0.00;;;;;;;7.03;71.30;98508.72;6275784;22;20448;-80
2022/04/11 03:32:34;;;;;;;0.00;0.00;;;;;;;6.97;71.64;98523.09;6276672;22;20007;-77
2022/04/11 03:34:59;;;;;;;0.00;0.00;;;;;;;6.90;72.91;98518.03;6275624;22;20007;-79
2022/04/11 03:37:25;;;;;;;0.00;0.00;;;;;;;6.95;72.59;98531.34;6248559;22;19996;-74
2022/04/11 03:39:50;;;;;;;0.00;0.00;;;;;;;6.84;72.47;98516.44;6275248;22;19996;-77
2022/04/11 03:42:15;;;;;;;0.08;0.08;;;;;;;6.79;72.38;98530.53;6275309;22;20057;-74
2022/04/11 03:44:42;;;;;;;0.00;0.00;;;;;;;6.79;71.91;98540.38;6275574;22;20396;-74
2022/04/11 03:47:08;;;;;;;0.00;0.00;;;;;;;6.77;72.28;98537.94;6275131;22;20098;-74
2022/04/11 03:49:33;;;;;;;0.00;0.00;;;;;;;6.69;71.55;98538.47;6275393;22;20639;-74
2022/04/11 03:51:59;;;;;;;0.00;0.00;;;;;;;6.68;71.46;98542.19;6274923;22;20003;-74
2022/04/11 03:54:24;;;;;;;0.00;0.00;;;;;;;6.72;72.65;98553.88;6275485;22;20003;-73
2022/04/11 03:56:50;;;;;;;0.00;0.00;;;;;;;6.76;73.34;98546.19;6275340;22;20004;-74
2022/04/11 03:59:15;;;;;;;0.00;0.00;;;;;;;6.75;73.60;98553.38;6274984;22;20067;-73
2022/04/11 04:01:41;;;;;;;0.00;0.00;;;;;;;6.77;73.40;98567.19;6274999;22;20031;-73
2022/04/11 04:04:06;;;;;;;0.00;0.00;;;;;;;6.83;73.50;98562.69;6274880;22;20364;-73
2022/04/11 04:06:32;;;;;;;0.03;0.03;;;;;;;6.87;73.90;98571.72;6275006;22;20000;-73
2022/04/11 04:08:57;;;;;;;0.00;0.00;;;;;;;6.87;73.42;98571.72;6274006;22;20471;-74
2022/04/11 04:11:23;;;;;;;0.00;0.00;;;;;;;6.87;73.22;98580.50;6275481;22;20011;-73
2022/04/11 04:13:48;;;;;;;0.00;0.00;;;;;;;6.83;73.15;98570.66;6275262;22;20000;-75
2022/04/11 04:16:14;;;;;;;0.00;0.00;;;;;;;6.82;72.40;98577.84;6274531;22;20012;-76
2022/04/11 04:18:39;;;;;;;0.10;0.10;;;;;;;6.84;70.52;98578.34;6274384;22;20004;-74
2022/04/11 04:21:05;;;;;;;0.00;0.00;;;;;;;6.82;69.64;98585.00;6273604;22;20453;-74
2022/04/11 04:23:30;;;;;;;0.00;0.00;;;;;;;6.82;70.23;98587.66;6273580;22;20004;-74
2022/04/11 04:25:57;;;;;;;0.00;0.00;;;;;;;6.77;70.05;98595.63;6274637;22;20010;-77
2022/04/11 04:28:22;;;;;;;0.00;0.00;;;;;;;6.80;69.91;98593.25;6247953;22;20011;-75
2022/04/11 04:30:48;;;;;;;0.00;0.00;;;;;;;6.76;70.41;98600.13;6274624;22;20444;-71
2022/04/11 04:33:13;;;;;;;0.00;0.00;;;;;;;6.79;69.18;98610.25;6274622;22;20019;-72
2022/04/11 04:35:39;;;;;;;0.00;0.00;;;;;;;6.77;69.35;98608.91;6274497;22;20006;-74
2022/04/11 04:38:05;;;;;;;0.00;0.00;;;;;;;6.84;69.07;98615.56;6274642;22;20018;-75
2022/04/11 04:40:30;;;;;;;0.00;0.00;;;;;;;6.91;69.56;98620.66;6247550;22;20091;-70
2022/04/11 04:42:56;;;;;;;0.00;0.00;;;;;;;6.87;69.56;98635.50;6274464;22;20057;-73
2022/04/11 04:45:23;;;;;;;0.10;0.10;;;;;;;6.93;70.02;98631.81;6274763;22;20004;-71
2022/04/11 04:47:49;;;;;;;0.00;0.00;;;;;;;6.97;70.17;98635.56;6274929;22;20012;-73
2022/04/11 04:50:14;;;;;;;0.00;0.00;;;;;;;7.03;70.76;98633.69;6274670;22;20464;-73
2022/04/11 04:52:39;;;;;;;0.20;0.20;;;;;;;7.08;71.12;98640.88;6274895;22;20007;-73
2022/04/11 04:55:05;;;;;;;0.00;0.00;;;;;;;7.13;71.06;98640.88;6274698;22;20091;-71
2022/04/11 04:57:31;;;;;;;0.00;0.00;;;;;;;7.11;71.74;98643.81;6274889;22;20083;-73
2022/04/11 04:59:56;;;;;;;0.00;0.00;;;;;;;7.10;71.02;98647.53;6274606;22;20003;-73
2022/04/11 05:02:22;;;;;;;0.00;0.00;;;;;;;7.18;71.35;98648.91;6274834;22;20011;-73
2022/04/11 05:04:47;;;;;;;0.10;0.10;;;;;;;7.15;71.17;98652.88;6247840;22;20218;-71
2022/04/11 05:07:12;;;;;;;0.00;0.00;;;;;;;7.23;70.89;98651.56;6274415;22;20003;-74
2022/04/11 05:09:38;;;;;;;0.00;0.00;;;;;;;7.25;71.15;98657.44;6274816;22;20007;-71
2022/04/11 05:12:04;;;;;;;0.00;0.00;;;;;;;7.33;71.67;98659.53;6274512;22;20039;-73
2022/04/11 05:14:29;;;;;;;1.00;0.55;;;;;;;7.40;71.13;98661.97;6274612;22;20004;-73
2022/04/11 05:16:54;;;;;;;0.00;0.00;;;;;;;7.46;71.34;98663.56;6274319;22;20395;-72
2022/04/11 05:19:20;;;;;;;0.00;0.00;;;;;;;7.50;70.96;98663.84;6274568;22;20007;-73
2022/04/11 05:21:45;;;;;;;0.00;0.00;;;;;;;7.59;70.92;98670.25;6247420;22;20062;-71
2022/04/11 05:24:11;;;;;;;0.10;0.10;;;;;;;7.63;71.19;98668.63;6247162;22;19999;-73
2022/04/11 05:26:36;;;;;;;0.00;0.00;;;;;;;7.76;71.43;98672.63;6274413;22;20004;-72
2022/04/11 05:29:03;;;;;;;0.00;0.00;;;;;;;7.82;71.69;98670.75;6273830;22;20460;-72
2022/04/11 05:31:29;;;;;;;0.00;0.00;;;;;;;7.90;71.41;98664.91;6274554;22;20003;-72
2022/04/11 05:33:54;;;;;;;0.00;0.00;;;;;;;8.02;71.40;98669.97;6274373;22;20042;-72
2022/04/11 05:36:20;;;;;;;0.00;0.00;;;;;;;8.04;71.00;98673.13;6274503;22;20003;-72
2022/04/11 05:38:45;;;;;;;0.00;0.00;;;;;;;8.14;71.00;98685.66;6274538;22;20485;-72
2022/04/11 05:41:11;;;;;;;0.00;0.00;;;;;;;8.23;70.14;98678.72;6272636;22;20007;-72
2022/04/11 05:43:37;;;;;;;0.00;0.00;;;;;;;8.31;70.43;98685.34;6274423;22;20004;-71
2022/04/11 05:46:02;;;;;;;0.00;0.00;;;;;;;8.40;69.94;98691.75;6274004;22;20150;-72
2022/04/11 05:48:30;;;;;;;0.00;0.00;;;;;;;8.65;69.78;98687.44;6247274;22;20007;-71
2022/04/11 05:51:01;;;;;;;0.00;0.00;;;;;;;8.93;68.69;98688.66;6274047;22;20007;-74
2022/04/11 05:53:27;;;;;;;0.00;0.00;;;;;;;9.20;67.08;98690.13;6273665;22;20433;-71
2022/04/11 05:55:52;;;;;;;0.10;0.10;;;;;;;9.55;67.25;98687.53;6273644;22;20011;-72
2022/04/11 05:58:18;;;;;;;0.00;0.00;;;;;;;9.94;66.10;98697.38;6273906;22;20075;-71
2022/04/11 06:00:43;;;;;;;0.00;0.00;;;;;;;10.27;64.21;98700.28;6274073;22;20429;-74
2022/04/11 06:03:09;;;;;;;0.00;0.00;;;;;;;10.54;60.91;98709.66;6273544;22;20004;-73
2022/04/11 06:05:37;;;;;;;0.00;0.00;;;;;;;10.68;60.85;98713.25;6273278;22;20064;-72
2022/04/11 06:08:03;;;;;;;0.30;0.30;;;;;;;10.71;59.49;98718.03;6272859;22;20003;-72
2022/04/11 06:10:28;;;;;;;0.00;0.00;;;;;;;10.74;59.05;98724.69;6273128;22;20026;-72
2022/04/11 06:12:54;;;;;;;0.00;0.00;;;;;;;10.71;58.23;98725.25;6272618;22;20504;-72
2022/04/11 06:15:19;;;;;;;0.00;0.00;;;;;;;10.75;58.10;98728.16;6273112;22;20063;-72
2022/04/11 06:17:45;;;;;;;0.00;0.00;;;;;;;10.72;59.21;98726.84;6215278;23;20016;-72
2022/04/11 06:20:11;;;;;;;0.00;0.00;;;;;;;10.72;59.76;98742.91;6241695;23;20000;-72
2022/04/11 06:22:38;;;;;;;0.00;0.00;;;;;;;10.74;59.79;98743.41;6241945;23;20449;-73
2022/04/11 06:25:05;;;;;;;0.03;0.03;;;;;;;10.80;60.11;98754.84;6242070;23;20042;-73
2022/04/11 06:27:32;;;;;;;0.00;0.00;;;;;;;10.70;59.74;98745.84;6242092;23;20011;-73
2022/04/11 06:29:58;;;;;;;0.10;0.10;;;;;;;10.70;60.10;98758.44;6242035;23;20091;-74
2022/04/11 06:32:28;;;;;;;0.00;0.00;;;;;;;10.62;58.92;98757.19;6242098;23;20438;-73
2022/04/11 06:34:54;;;;;;;0.00;0.00;;;;;;;10.51;59.96;98766.38;6242095;23;20024;-71
2022/04/11 06:37:21;;;;;;;0.00;0.00;;;;;;;10.45;60.46;98772.84;6242311;23;20012;-71
2022/04/11 06:39:47;;;;;;;0.00;0.00;;;;;;;10.38;60.16;98768.63;6242158;23;20031;-74
2022/04/11 06:42:13;;;;;;;0.00;0.00;;;;;;;10.39;60.62;98772.91;6242205;23;20434;-74
2022/04/11 06:44:38;;;;;;;0.00;0.00;;;;;;;10.45;60.53;98772.84;6242426;23;20008;-74
2022/04/11 06:47:05;;;;;;;0.00;0.00;;;;;;;10.37;61.25;98783.06;6242047;23;20008;-73
2022/04/11 06:49:30;;;;;;;0.00;0.00;;;;;;;10.47;59.97;98787.53;6215384;23;20357;-73
2022/04/11 06:51:55;;;;;;;0.00;0.00;;;;;;;10.53;60.22;98797.13;6242118;23;20011;-73
2022/04/11 06:54:21;;;;;;;0.00;0.00;;;;;;;10.55;59.19;98791.47;6242457;23;20008;-73
2022/04/11 06:56:47;;;;;;;0.00;0.00;;;;;;;10.60;59.85;98796.78;6242539;23;20008;-73
2022/04/11 06:59:12;;;;;;;0.10;0.10;;;;;;;10.60;58.81;98798.66;6242656;23;20000;-73
2022/04/11 07:01:37;;;;;;;0.00;0.00;;;;;;;10.57;59.26;98800.81;6243096;23;20004;-73
2022/04/11 07:04:03;;;;;;;0.00;0.00;;;;;;;10.60;59.07;98807.47;6242507;23;20004;-73
2022/04/11 07:06:28;;;;;;;0.00;0.00;;;;;;;10.64;59.00;98800.47;6216134;23;20008;-73
2022/04/11 07:08:54;;;;;;;0.00;0.00;;;;;;;10.63;58.26;98806.91;6243097;23;20004;-73
2022/04/11 07:11:19;;;;;;;0.00;0.00;;;;;;;10.60;57.94;98818.16;6242852;23;20000;-73
2022/04/11 07:13:45;;;;;;;0.52;0.52;;;;;;;10.58;57.84;98812.28;6242568;23;20012;-73
2022/04/11 07:16:11;;;;;;;0.08;0.08;;;;;;;10.61;58.61;98821.63;6253204;22;20094;-73
2022/04/11 07:18:36;;;;;;;0.00;0.00;;;;;;;10.57;58.13;98830.22;6273706;22;20337;-73
2022/04/11 07:21:02;;;;;;;0.00;0.00;;;;;;;10.56;58.61;98833.97;6273370;22;20077;-73
2022/04/11 07:23:27;;;;;;;0.00;0.00;;;;;;;10.57;57.33;98834.78;6273719;22;20010;-73
2022/04/11 07:25:53;;;;;;;0.05;0.05;;;;;;;10.56;57.72;98839.31;6273372;22;20339;-73
2022/04/11 07:28:18;;;;;;;0.00;0.00;;;;;;;10.56;57.86;98838.53;6273299;22;20000;-73
2022/04/11 07:30:44;;;;;;;0.00;0.00;;;;;;;10.64;58.83;98839.78;6273603;22;20014;-73
2022/04/11 07:33:10;;;;;;;0.00;0.00;;;;;;;10.70;58.39;98827.97;6273362;22;20014;-74
2022/04/11 07:35:36;;;;;;;0.00;0.00;;;;;;;10.80;58.05;98840.44;6273703;22;20444;-73
2022/04/11 07:38:02;;;;;;;0.00;0.00;;;;;;;10.93;57.54;98842.47;6246268;22;20074;-73
2022/04/11 07:40:29;;;;;;;0.00;0.00;;;;;;;11.09;57.43;98847.66;6273184;22;20510;-73
2022/04/11 07:42:54;;;;;;;0.00;0.00;;;;;;;11.15;56.71;98841.97;6273889;22;20012;-73
2022/04/11 07:45:21;;;;;;;0.00;0.00;;;;;;;11.24;56.76;98844.00;6275243;22;20077;-73
2022/04/11 07:47:46;;;;;;;0.00;0.00;;;;;;;11.25;55.93;98846.41;6275255;22;20011;-73
2022/04/11 07:50:12;;;;;;;0.00;0.00;;;;;;;11.28;56.44;98856.56;6275147;22;20004;-73
2022/04/11 07:52:39;;;;;;;0.00;0.00;;;;;;;11.40;56.63;98852.66;6275094;22;20021;-73
2022/04/11 07:55:06;;;;;;;0.00;0.00;;;;;;;11.52;56.34;98855.72;6274978;22;20007;-73
2022/04/11 07:57:32;;;;;;;0.00;0.00;;;;;;;11.59;55.08;98855.41;6275286;22;20007;-72
2022/04/11 07:59:57;;;;;;;0.70;0.70;;;;;;;11.71;55.20;98860.34;6275242;22;20058;-73
2022/04/11 08:02:25;;;;;;;0.00;0.00;;;;;;;11.81;54.88;98854.84;6275004;22;20448;-74
2022/04/11 08:04:51;;;;;;;0.10;0.10;;;;;;;11.93;53.78;98863.25;6275209;22;20006;-73
2022/04/11 08:07:16;;;;;;;0.00;0.00;;;;;;;11.97;52.73;98858.94;6274860;22;20000;-73
2022/04/11 08:09:41;;;;;;;0.00;0.00;;;;;;;12.13;53.42;98869.44;6275237;22;20004;-74
2022/04/11 08:12:07;;;;;;;0.03;0.03;;;;;;;12.25;53.44;98882.41;6274593;22;20065;-74
2022/04/11 08:14:34;;;;;;;0.00;0.00;;;;;;;12.40;52.26;98876.81;6275078;22;20010;-73
2022/04/11 08:17:03;;;;;;;0.10;0.10;;;;;;;12.48;51.59;98881.50;6274460;22;20099;-73
2022/04/11 08:19:29;;;;;;;0.00;0.00;;;;;;;12.60;50.78;98888.31;6275025;22;20004;-73
2022/04/11 08:21:55;;;;;;;0.00;0.00;;;;;;;12.57;51.06;98884.34;6275112;22;20097;-73
2022/04/11 08:24:20;;;;;;;0.00;0.00;;;;;;;12.70;51.94;98884.66;6274797;22;20469;-73
2022/04/11 08:26:46;;;;;;;0.00;0.00;;;;;;;12.72;49.91;98895.88;6275048;22;20091;-74
2022/04/11 08:29:11;;;;;;;0.00;0.00;;;;;;;12.61;49.03;98904.09;6274795;22;20081;-73
2022/04/11 08:31:36;;;;;;;0.00;0.00;;;;;;;12.56;48.77;98900.69;6274822;22;20082;-72
2022/04/11 08:34:03;;;;;;;0.00;0.00;;;;;;;12.44;49.07;98910.00;6274596;22;20409;-73
2022/04/11 08:36:28;;;;;;;0.00;0.00;;;;;;;12.33;49.17;98914.72;6274795;22;20447;-74
2022/04/11 08:38:53;;;;;;;0.00;0.00;;;;;;;12.17;49.85;98916.81;6274863;22;20117;-74
2022/04/11 08:41:19;;;;;;;0.00;0.00;;;;;;;12.01;49.78;98918.91;6274657;22;19999;-73
2022/04/11 08:43:45;;;;;;;0.00;0.00;;;;;;;11.91;51.81;98920.91;6275335;22;20074;-74
2022/04/11 08:46:14;;;;;;;0.00;0.00;;;;;;;11.82;52.62;98916.16;6274512;22;20004;-74
2022/04/11 08:48:42;;;;;;;0.00;0.00;;;;;;;11.81;53.71;98919.94;6274494;22;20345;-74
2022/04/11 08:51:08;;;;;;;0.00;0.00;;;;;;;11.76;53.21;98917.31;6274593;22;20003;-74
2022/04/11 08:53:34;;;;;;;0.08;0.08;;;;;;;11.68;53.21;98916.06;6275237;22;20284;-73
2022/04/11 08:55:59;;;;;;;0.00;0.00;;;;;;;11.55;51.57;98919.44;6274439;22;20034;-73
2022/04/11 08:58:26;;;;;;;0.10;0.10;;;;;;;11.56;50.67;98922.91;6274508;22;20006;-73
2022/04/11 09:00:51;;;;;;;0.00;0.00;;;;;;;11.57;50.82;98924.50;6274743;22;20008;-73
2022/04/11 09:03:17;;;;;;;0.00;0.00;;;;;;;11.49;50.20;98931.31;6274474;22;20010;-73
2022/04/11 09:05:42;;;;;;;0.00;0.00;;;;;;;11.45;51.33;98920.34;6274600;22;20007;-73
2022/04/11 09:08:08;;;;;;;0.10;0.10;;;;;;;11.34;50.39;98925.03;6274374;22;19999;-73
2022/04/11 09:10:38;;;;;;;0.00;0.00;;;;;;;11.29;50.07;98927.75;6274623;22;20322;-74
2022/04/11 09:13:09;;;;;;;0.03;0.03;;;;;;;11.18;48.95;98907.50;6274394;22;20007;-73
2022/04/11 09:15:44;;;;;;;0.00;0.00;;;;;;;11.11;49.14;98934.63;6274145;22;20008;-73
2022/04/11 09:18:09;;;;;;;0.00;0.00;;;;;;;11.04;49.16;98936.81;6274273;22;20004;-73
2022/04/11 09:20:35;;;;;;;0.10;0.10;;;;;;;10.98;49.48;98945.97;6274445;22;20026;-73
2022/04/11 09:23:00;;;;;;;0.00;0.00;;;;;;;10.96;50.06;98948.13;6274453;22;20003;-73
2022/04/11 09:25:30;;;;;;;0.00;0.00;;;;;;;10.89;50.27;98953.81;6274168;22;20010;-73
2022/04/11 09:28:10;;;;;;;0.00;0.00;;;;;;;10.81;50.83;98949.84;6274002;22;20031;-73
2022/04/11 09:30:37;;;;;;;0.90;0.38;;;;;;;10.84;50.67;98972.56;6274216;22;20524;-73
2022/04/11 09:33:05;;;;;;;0.00;0.00;;;;;;;10.82;51.80;98969.38;6274395;22;19999;-73
2022/04/11 09:35:36;;;;;;;0.03;0.03;;;;;;;10.81;51.93;98967.78;6247113;22;20035;-73
2022/04/11 09:38:09;;;;;;;0.00;0.00;;;;;;;10.79;51.82;98965.38;6274333;22;20456;-73
2022/04/11 09:40:48;;;;;;;0.00;0.00;;;;;;;10.77;51.01;98969.44;6274377;22;20011;-74
2022/04/11 09:43:14;;;;;;;0.40;0.40;;;;;;;10.76;51.48;98981.19;6274048;22;20015;-74
2022/04/11 09:45:42;;;;;;;0.00;0.00;;;;;;;10.76;51.87;98979.31;6274143;22;20004;-73
2022/04/11 09:48:08;;;;;;;0.10;0.10;;;;;;;10.81;51.84;98991.84;6273972;22;20004;-73
2022/04/11 09:50:34;;;;;;;0.20;0.15;;;;;;;10.80;52.66;98996.41;6274261;22;20038;-74
2022/04/11 09:53:11;;;;;;;0.00;0.00;;;;;;;10.85;53.02;99000.91;6273978;22;19999;-74
2022/04/11 09:55:38;;;;;;;0.00;0.00;;;;;;;10.93;53.76;98999.53;6273842;22;20000;-75
2022/04/11 09:58:04;;;;;;;0.50;0.47;;;;;;;10.93;53.23;98988.84;6274100;22;20007;-74
2022/04/11 10:00:32;;;;;;;0.00;0.00;;;;;;;10.91;53.19;99007.03;6273755;22;20015;-74
2022/04/11 10:02:58;;;;;;;0.00;0.00;;;;;;;10.95;53.76;99010.75;6273957;22;20003;-72
2022/04/11 10:05:24;;;;;;;0.00;0.00;;;;;;;10.93;53.98;99013.69;6273765;22;20445;-73
2022/04/11 10:07:54;;;;;;;0.00;0.00;;;;;;;10.96;53.91;99015.84;6273514;22;20014;-72
2022/04/11 10:10:21;;;;;;;0.32;0.32;;;;;;;10.92;54.31;99005.97;6273500;22;20404;-72
2022/04/11 10:12:47;;;;;;;0.00;0.00;;;;;;;10.85;53.99;99027.66;6274016;22;20353;-73
2022/04/11 10:15:13;;;;;;;0.00;0.00;;;;;;;10.80;54.19;99031.19;6273699;22;20004;-73
2022/04/11 10:17:38;;;;;;;0.00;0.00;;;;;;;10.79;53.71;99024.25;6273960;22;20014;-72
2022/04/11 10:20:05;;;;;;;0.00;0.00;;;;;;;10.80;53.86;99031.19;6274023;22;20008;-73
2022/04/11 10:22:38;;;;;;;0.00;0.00;;;;;;;10.81;53.47;99040.00;6273673;22;20330;-73
2022/04/11 10:25:07;;;;;;;0.00;0.00;;;;;;;10.80;53.61;99038.41;6273892;22;20004;-72
2022/04/11 10:27:34;;;;;;;0.00;0.00;;;;;;;10.77;53.86;99045.09;6273496;22;20006;-72
2022/04/11 10:30:02;;;;;;;0.00;0.00;;;;;;;10.74;54.74;99056.34;6273881;22;20007;-73
2022/04/11 10:32:30;;;;;;;0.00;0.00;;;;;;;10.76;54.09;99048.84;6273396;22;20058;-73
2022/04/11 10:35:01;;;;;;;0.00;0.00;;;;;;;10.82;53.68;99049.63;6273751;22;20068;-73
2022/04/11 10:38:06;;;;;;;0.05;0.05;;;;;;;10.77;51.72;99057.69;6273504;22;20064;-72
2022/04/11 10:40:32;;;;;;;0.00;0.00;;;;;;;10.70;50.27;99061.44;6268567;22;20030;-73
2022/04/11 10:43:00;;;;;;;0.00;0.00;;;;;;;10.68;49.79;99060.94;6273844;22;20079;-74
2022/04/11 10:45:41;;;;;;;0.10;0.10;;;;;;;10.64;48.12;99064.44;6273477;22;20008;-74
2022/04/11 10:48:11;;;;;;;0.00;0.00;;;;;;;10.63;48.39;99069.00;6273884;22;20030;-72
2022/04/11 10:50:37;;;;;;;0.00;0.00;;;;;;;10.68;47.84;99074.31;6273724;22;20026;-72
2022/04/11 10:53:24;;;;;;;0.00;0.00;;;;;;;10.75;48.43;99075.88;6273905;22;20000;-72
2022/04/11 10:56:02;;;;;;;0.00;0.00;;;;;;;10.78;50.38;99073.47;6273867;22;20410;-73
2022/04/11 10:58:47;;;;;;;1.95;0.40;;;;;;;10.82;52.04;99076.38;6273551;22;20030;-73
2022/04/11 11:01:13;;;;;;;0.00;0.00;;;;;;;10.83;52.89;99078.00;6273590;22;20405;-73
2022/04/11 11:03:42;;;;;;;0.00;0.00;;;;;;;10.88;53.19;99069.94;6273771;22;20495;-74
2022/04/11 11:06:17;;;;;;;0.00;0.00;;;;;;;10.83;52.92;99080.66;6246378;22;20008;-72
2022/04/11 11:08:43;;;;;;;0.00;0.00;;;;;;;10.92;52.75;99081.66;6273546;22;20046;-74
2022/04/11 11:11:27;;;;;;;0.15;0.15;;;;;;;10.91;53.55;99081.94;6273129;22;20353;-73
2022/04/11 11:13:55;;;;;;;0.00;0.00;;;;;;;10.88;53.64;99080.63;6273685;22;20000;-74
2022/04/11 11:16:20;;;;;;;0.00;0.00;;;;;;;10.87;53.16;99084.38;6272739;22;20016;-72
2022/04/11 11:18:52;;;;;;;0.00;0.00;;;;;;;10.89;53.50;99079.56;6274590;22;20073;-72
2022/04/11 11:21:43;;;;;;;0.00;0.00;;;;;;;10.91;53.62;99085.41;6275371;22;20060;-72
2022/04/11 11:24:14;;;;;;;0.00;0.00;;;;;;;10.89;52.91;99084.91;6275381;22;20004;-74
2022/04/11 11:26:41;;;;;;;0.00;0.00;;;;;;;10.90;53.35;99065.09;6275387;22;20000;-74
2022/04/11 11:29:43;;;;;;;0.00;0.00;;;;;;;10.94;53.20;99081.41;6275578;22;20011;-74
2022/04/11 11:32:12;;;;;;;0.90;0.90;;;;;;;10.97;53.27;99088.88;6254871;22;20007;-74
2022/04/11 11:34:39;;;;;;;0.00;0.00;;;;;;;11.03;52.81;99082.41;6275570;22;20341;-74
2022/04/11 11:37:14;;;;;;;0.00;0.00;;;;;;;11.05;52.85;99089.06;6275064;22;20087;-74